Time;durP1;ratioP1;P1;durP2;ratioP2;P2;SDS_P1;SDS_P2;PMS_P1;PMS_P2;Temp;Humidity;BMP_temperature;BMP_pressure;BME280_temperature;BME280_humidity;BME280_pressure;Samples;Min_cycle;Max_cycle;Signal;HPM_P1;HPM_P2
2022/01/11 00:00:35;;;;;;;29.88;21.15;;;-1.10;99.90;;;;;;5040003;28;20052;-85
2022/01/11 00:03:14;;;;;;;39.42;20.95;;;-1.10;99.90;;;;;;5054956;28;20029;-87
2022/01/11 00:05:54;;;;;;;29.60;20.17;;;-1.10;99.90;;;;;;5055289;28;20032;-87
2022/01/11 00:08:30;;;;;;;25.85;19.25;;;-1.10;99.90;;;;;;5037065;28;20500;-87
2022/01/11 00:11:03;;;;;;;26.67;21.20;;;-0.90;99.90;;;;;;5046745;28;20044;-88
2022/01/11 00:13:31;;;;;;;28.58;21.58;;;-0.70;99.90;;;;;;5055177;28;20040;-88
2022/01/11 00:15:58;;;;;;;27.45;23.15;;;-0.50;99.90;;;;;;5054780;28;20037;-88
2022/01/11 00:18:24;;;;;;;23.05;20.60;;;-0.40;99.90;;;;;;5054726;28;20139;-88
2022/01/11 00:20:50;;;;;;;28.02;20.10;;;-0.50;99.90;;;;;;5056324;28;20033;-87
2022/01/11 00:25:45;;;;;;;24.42;18.98;;;-0.50;99.90;;;;;;5055256;28;20041;-88
2022/01/11 00:28:15;;;;;;;27.35;18.23;;;-0.50;99.90;;;;;;5038230;28;20053;-88
2022/01/11 00:30:53;;;;;;;20.92;17.23;;;-0.60;99.90;;;;;;5056175;28;20478;-88
2022/01/11 00:33:44;;;;;;;21.58;16.17;;;-0.60;99.90;;;;;;5036820;28;20048;-86
2022/01/11 00:36:11;;;;;;;23.73;17.13;;;-0.60;99.90;;;;;;5056131;28;20402;-88
2022/01/11 00:38:42;;;;;;;24.83;17.85;;;-0.50;99.90;;;;;;5063918;28;20040;-88
2022/01/11 00:41:11;;;;;;;21.03;16.27;;;-0.40;99.90;;;;;;5063229;28;20037;-87
2022/01/11 00:43:39;;;;;;;19.45;15.85;;;-0.40;99.90;;;;;;5061906;28;20028;-88
2022/01/11 00:46:09;;;;;;;17.98;15.88;;;-0.40;99.90;;;;;;5059627;28;20104;-89
2022/01/11 00:48:39;;;;;;;20.60;17.55;;;-0.30;99.90;;;;;;5063823;28;20017;-88
2022/01/11 00:51:07;;;;;;;17.17;13.47;;;-0.30;99.90;;;;;;5074879;28;20055;-89
2022/01/11 00:53:33;;;;;;;23.70;17.85;;;-0.20;99.90;;;;;;5076435;28;20025;-86
2022/01/11 00:55:59;;;;;;;24.90;18.45;;;-0.20;99.90;;;;;;5072414;28;20053;-87
2022/01/11 00:58:25;;;;;;;22.20;18.42;;;-0.10;99.90;;;;;;5063693;28;20033;-87
2022/01/11 01:00:52;;;;;;;20.80;16.88;;;-0.10;99.90;;;;;;5041761;28;20052;-87
2022/01/11 01:03:20;;;;;;;24.88;18.05;;;-0.10;99.90;;;;;;5056754;28;20041;-86
2022/01/11 01:05:46;;;;;;;26.45;18.83;;;-0.10;99.90;;;;;;5057558;28;20033;-87
2022/01/11 01:08:13;;;;;;;26.48;17.40;;;-0.10;99.90;;;;;;5041886;28;20032;-88
2022/01/11 01:10:46;;;;;;;26.67;16.70;;;-0.10;99.90;;;;;;5040607;28;20020;-88
2022/01/11 01:13:22;;;;;;;26.33;18.30;;;-0.20;99.90;;;;;;5057496;28;20115;-88
2022/01/11 01:15:55;;;;;;;22.27;18.10;;;-0.20;99.90;;;;;;5039261;28;20059;-88
2022/01/11 01:18:33;;;;;;;26.48;18.30;;;-0.20;99.90;;;;;;5053833;28;20041;-88
2022/01/11 01:21:00;;;;;;;21.65;17.17;;;-0.20;99.90;;;;;;5054315;28;20045;-89
2022/01/11 01:23:27;;;;;;;33.13;19.85;;;-0.20;99.90;;;;;;5055282;28;20045;-89
2022/01/11 01:25:53;;;;;;;31.17;19.77;;;-0.10;99.90;;;;;;5038066;28;20048;-88
2022/01/11 01:28:20;;;;;;;22.58;19.13;;;0.00;99.90;;;;;;5054551;28;20072;-87
2022/01/11 01:30:48;;;;;;;27.20;20.50;;;0.00;99.90;;;;;;5054098;28;20051;-89
2022/01/11 01:33:14;;;;;;;22.75;20.17;;;0.00;99.90;;;;;;5054182;28;20029;-88
2022/01/11 01:35:43;;;;;;;28.00;20.35;;;0.10;99.90;;;;;;5054735;28;20115;-87
2022/01/11 01:38:11;;;;;;;22.02;18.50;;;0.10;99.90;;;;;;5053777;28;20052;-88
2022/01/11 01:40:44;;;;;;;21.88;18.98;;;0.10;99.90;;;;;;5054100;28;20059;-89
2022/01/11 01:43:14;;;;;;;23.23;19.05;;;0.10;99.90;;;;;;5055829;28;20470;-89
2022/01/11 01:45:44;;;;;;;26.13;20.13;;;0.20;99.90;;;;;;5055834;28;20036;-88
2022/01/11 01:48:15;;;;;;;35.60;20.75;;;0.20;99.90;;;;;;5055697;28;20037;-90
2022/01/11 01:50:42;;;;;;;22.98;19.15;;;0.30;99.90;;;;;;5044208;28;20045;-89
2022/01/11 01:53:12;;;;;;;26.52;21.00;;;0.30;99.90;;;;;;5052413;28;20406;-89
2022/01/11 01:55:41;;;;;;;23.23;20.63;;;0.40;99.90;;;;;;5053908;28;20044;-89
2022/01/11 01:58:08;;;;;;;30.95;20.50;;;0.40;99.90;;;;;;5054726;28;20045;-90
2022/01/11 02:00:41;;;;;;;27.33;21.15;;;0.50;99.90;;;;;;5055061;28;20036;-90
2022/01/11 02:03:13;;;;;;;26.08;21.20;;;0.50;99.90;;;;;;5055288;28;20386;-88
2022/01/11 02:05:41;;;;;;;24.65;20.33;;;0.60;99.90;;;;;;5055254;28;20060;-88
2022/01/11 02:08:08;;;;;;;27.48;20.30;;;0.50;99.90;;;;;;5059215;28;20371;-90
2022/01/11 02:10:39;;;;;;;25.50;20.00;;;0.50;99.90;;;;;;5072731;28;20040;-87
2022/01/11 02:13:08;;;;;;;24.30;20.63;;;0.50;99.90;;;;;;5074156;28;20045;-88
2022/01/11 02:15:36;;;;;;;27.83;19.65;;;0.50;99.90;;;;;;5060031;28;20045;-88
2022/01/11 02:18:11;;;;;;;25.88;20.33;;;0.50;99.90;;;;;;5073624;28;20044;-89
2022/01/11 02:23:30;;;;;;;25.40;20.60;;;0.40;99.90;;;;;;5766602;22;20058;-87
2022/01/11 02:25:58;;;;;;;24.00;19.83;;;0.50;99.90;;;;;;5023130;28;20383;-89
2022/01/11 02:28:28;;;;;;;95.50;66.00;;;0.50;99.90;;;;;;5019593;28;20046;-85
2022/01/11 02:30:56;;;;;;;64.28;41.47;;;0.50;99.90;;;;;;5022155;28;20471;-88
2022/01/11 02:33:32;;;;;;;35.65;23.05;;;0.50;99.90;;;;;;5038763;28;20038;-86
2022/01/11 02:36:12;;;;;;;30.67;21.67;;;0.60;99.90;;;;;;5039601;28;20064;-87
2022/01/11 02:38:38;;;;;;;31.90;21.40;;;0.60;99.90;;;;;;5030608;28;20046;-87
2022/01/11 02:41:05;;;;;;;30.17;21.02;;;0.60;99.90;;;;;;5018777;28;20037;-87
2022/01/11 02:43:31;;;;;;;27.13;20.02;;;0.70;99.90;;;;;;5024733;28;20046;-86
2022/01/11 02:46:00;;;;;;;26.17;19.95;;;0.70;99.90;;;;;;5002162;28;20495;-87
2022/01/11 02:48:30;;;;;;;23.48;20.80;;;0.70;99.90;;;;;;5019727;28;20022;-87
2022/01/11 02:50:58;;;;;;;24.92;19.98;;;0.70;99.90;;;;;;5005361;28;20042;-87
2022/01/11 02:53:25;;;;;;;24.95;20.25;;;0.60;99.90;;;;;;5016692;28;20050;-86
2022/01/11 02:55:54;;;;;;;27.30;20.95;;;0.60;99.90;;;;;;5017773;28;20045;-86
2022/01/11 02:58:21;;;;;;;29.85;22.20;;;0.70;99.90;;;;;;5017895;28;20388;-87
2022/01/11 03:00:48;;;;;;;28.15;22.02;;;0.70;99.90;;;;;;5018950;28;20057;-90
2022/01/11 03:03:20;;;;;;;37.00;25.17;;;0.70;99.90;;;;;;5017518;28;20052;-88
2022/01/11 03:05:52;;;;;;;25.73;20.77;;;0.70;99.90;;;;;;5016532;28;20046;-85
2022/01/11 03:08:19;;;;;;;;;;;0.70;99.90;;;;;;5016645;28;20045;-87
2022/01/11 03:10:47;;;;;;;25.27;20.90;;;0.70;99.90;;;;;;5022155;28;20091;-86
2022/01/11 03:13:16;;;;;;;26.60;20.50;;;0.60;99.90;;;;;;5017516;28;20038;-86
2022/01/11 03:15:45;;;;;;;37.63;23.15;;;0.70;99.90;;;;;;5017116;28;20065;-86
2022/01/11 03:18:14;;;;;;;36.53;23.70;;;0.70;99.90;;;;;;5017106;28;20479;-87
2022/01/11 03:20:48;;;;;;;28.90;23.52;;;0.60;99.90;;;;;;5027552;28;20042;-86
2022/01/11 03:23:16;;;;;;;27.15;24.20;;;0.60;99.90;;;;;;5013847;28;20414;-87
2022/01/11 03:25:44;;;;;;;32.13;22.15;;;0.60;99.90;;;;;;5015043;28;20049;-87
2022/01/11 03:28:13;;;;;;;30.98;24.92;;;0.60;99.90;;;;;;5016729;28;20482;-86
2022/01/11 03:30:39;;;;;;;27.20;24.38;;;0.60;99.90;;;;;;5016858;28;20037;-87
2022/01/11 03:33:08;;;;;;;31.98;24.92;;;0.60;99.90;;;;;;5016105;28;20537;-86
2022/01/11 03:35:36;;;;;;;29.88;23.35;;;0.60;99.90;;;;;;5013160;28;20400;-86
2022/01/11 03:38:04;;;;;;;30.08;24.23;;;0.70;99.90;;;;;;5004440;28;20048;-88
2022/01/11 03:40:32;;;;;;;31.42;22.15;;;0.70;99.90;;;;;;5015893;28;20049;-86
2022/01/11 03:43:03;;;;;;;27.45;22.50;;;0.60;99.90;;;;;;5016543;28;20065;-86
2022/01/11 03:45:30;;;;;;;29.25;22.38;;;0.70;99.90;;;;;;5014711;28;20038;-84
2022/01/11 03:48:04;;;;;;;24.30;21.35;;;0.70;99.90;;;;;;5016468;28;20069;-87
2022/01/11 03:50:32;;;;;;;26.13;20.45;;;0.60;99.90;;;;;;5015849;28;20499;-86
2022/01/11 03:53:09;;;;;;;30.38;22.55;;;0.70;99.90;;;;;;5015747;28;20049;-86
2022/01/11 03:58:20;;;;;;;34.05;23.90;;;0.70;99.90;;;;;;5014301;28;20046;-86
2022/01/11 04:00:47;;;;;;;32.38;22.20;;;0.70;99.90;;;;;;5014397;28;20057;-87
2022/01/11 04:03:15;;;;;;;28.85;22.42;;;0.70;99.90;;;;;;5015168;28;20042;-86
2022/01/11 04:05:44;;;;;;;30.95;21.42;;;0.70;99.90;;;;;;5019241;28;20060;-86
2022/01/11 04:08:11;;;;;;;33.00;23.50;;;0.70;99.90;;;;;;5026190;28;20463;-85
2022/01/11 04:10:37;;;;;;;28.63;25.30;;;0.70;99.90;;;;;;5012154;28;20121;-85
2022/01/11 04:13:04;;;;;;;32.80;23.13;;;0.70;99.90;;;;;;5032431;28;20018;-86
2022/01/11 04:15:30;;;;;;;30.20;23.48;;;0.70;99.90;;;;;;5031424;28;20568;-85
2022/01/11 04:17:58;;;;;;;34.00;24.55;;;0.80;99.90;;;;;;5020709;28;20034;-86
2022/01/11 04:20:27;;;;;;;29.52;23.50;;;0.80;99.90;;;;;;5036362;28;20034;-87
2022/01/11 04:22:53;;;;;;;27.33;23.45;;;0.80;99.90;;;;;;5030907;28;20048;-88
2022/01/11 04:25:21;;;;;;;28.77;22.50;;;0.80;99.90;;;;;;5000468;28;20053;-88
2022/01/11 04:27:48;;;;;;;32.05;24.48;;;0.80;99.90;;;;;;5017586;28;20038;-86
2022/01/11 04:30:14;;;;;;;27.08;23.35;;;0.80;99.90;;;;;;5016622;28;20050;-86
2022/01/11 04:32:41;;;;;;;28.73;24.65;;;0.80;99.90;;;;;;5015673;28;20034;-86
2022/01/11 04:35:13;;;;;;;29.70;24.40;;;0.80;99.90;;;;;;5013990;28;20057;-86
2022/01/11 04:37:39;;;;;;;30.77;24.63;;;0.80;99.90;;;;;;5014543;28;20046;-85
2022/01/11 04:40:07;;;;;;;35.58;24.17;;;0.80;99.90;;;;;;5015203;28;20349;-84
2022/01/11 04:42:36;;;;;;;28.07;23.40;;;0.80;99.90;;;;;;5005224;28;20045;-87
2022/01/11 04:45:03;;;;;;;29.00;23.05;;;0.90;99.90;;;;;;5020573;28;20034;-87
2022/01/11 04:47:32;;;;;;;28.98;23.92;;;0.80;99.90;;;;;;5017579;28;20049;-84
2022/01/11 04:49:58;;;;;;;26.17;22.90;;;0.90;99.90;;;;;;5018143;28;20034;-86
2022/01/11 04:52:25;;;;;;;26.17;22.90;;;0.90;99.90;;;;;;5001801;28;20045;-86
2022/01/11 04:54:51;;;;;;;28.95;21.23;;;0.80;99.90;;;;;;5018252;28;20045;-86
2022/01/11 04:57:18;;;;;;;35.65;26.15;;;0.90;99.90;;;;;;5018924;28;20046;-85
2022/01/11 04:59:45;;;;;;;33.95;24.20;;;0.90;99.90;;;;;;5018780;28;20046;-86
2022/01/11 05:02:12;;;;;;;33.83;22.92;;;0.90;99.90;;;;;;5022735;28;20036;-87
2022/01/11 05:04:43;;;;;;;26.45;22.90;;;0.90;99.90;;;;;;5020644;28;20046;-86
2022/01/11 05:07:11;;;;;;;27.40;22.40;;;0.90;99.90;;;;;;5021135;28;20065;-87
2022/01/11 05:09:38;;;;;;;27.75;21.98;;;0.90;99.90;;;;;;5019921;28;20033;-86
2022/01/11 05:12:08;;;;;;;30.35;22.00;;;0.90;99.90;;;;;;5023095;28;20045;-89
2022/01/11 05:14:34;;;;;;;30.13;22.83;;;0.90;99.90;;;;;;5024895;28;20033;-84
2022/01/11 05:17:03;;;;;;;29.85;24.05;;;0.90;99.90;;;;;;5002966;28;20041;-87
2022/01/11 05:19:32;;;;;;;33.60;22.35;;;0.90;99.90;;;;;;5001031;28;20025;-86
2022/01/11 05:22:00;;;;;;;33.85;23.83;;;0.90;99.90;;;;;;5018036;28;20053;-85
2022/01/11 05:24:27;;;;;;;33.25;22.67;;;0.90;99.90;;;;;;5019194;28;20054;-86
2022/01/11 05:26:56;;;;;;;36.58;23.88;;;0.90;99.90;;;;;;5017208;28;20398;-84
2022/01/11 05:29:22;;;;;;;27.42;22.27;;;0.90;99.90;;;;;;5017817;28;20045;-85
2022/01/11 05:31:50;;;;;;;33.17;22.13;;;0.90;99.90;;;;;;5018544;28;20026;-86
2022/01/11 05:34:22;;;;;;;32.35;23.02;;;0.90;99.90;;;;;;5019283;28;20030;-85
2022/01/11 05:36:50;;;;;;;38.08;23.75;;;0.90;99.90;;;;;;5020125;28;20022;-86
2022/01/11 05:39:16;;;;;;;32.30;22.92;;;0.90;99.90;;;;;;5019954;28;20038;-82
2022/01/11 05:41:43;;;;;;;27.08;22.92;;;0.90;99.90;;;;;;5025425;28;20046;-86
2022/01/11 05:44:09;;;;;;;31.70;22.92;;;0.90;99.90;;;;;;5035208;28;20036;-87
2022/01/11 05:46:35;;;;;;;26.85;22.95;;;0.90;99.90;;;;;;5032906;28;20041;-85
2022/01/11 05:49:02;;;;;;;33.05;22.42;;;0.90;99.90;;;;;;5015913;28;20052;-85
2022/01/11 05:51:29;;;;;;;25.30;21.10;;;0.90;99.90;;;;;;5022228;28;20044;-87
2022/01/11 05:54:00;;;;;;;29.10;23.30;;;0.80;99.90;;;;;;5016344;28;20189;-85
2022/01/11 05:56:29;;;;;;;28.73;23.10;;;0.80;99.90;;;;;;5017678;28;20053;-86
2022/01/11 05:58:58;;;;;;;29.90;24.23;;;0.80;99.90;;;;;;4981192;28;20468;-87
2022/01/11 06:01:25;;;;;;;29.80;23.67;;;0.80;99.90;;;;;;4976681;28;20026;-87
2022/01/11 06:03:52;;;;;;;30.67;23.10;;;0.80;99.90;;;;;;4974286;28;20045;-88
2022/01/11 06:06:18;;;;;;;43.85;24.15;;;0.80;99.90;;;;;;4950957;28;20058;-88
2022/01/11 06:08:45;;;;;;;34.78;23.83;;;0.80;99.90;;;;;;4969255;28;20404;-87
2022/01/11 06:11:13;;;;;;;32.35;24.17;;;0.70;99.90;;;;;;4966919;28;20043;-88
2022/01/11 06:13:44;;;;;;;41.13;24.63;;;0.80;99.90;;;;;;4981710;28;20046;-90
2022/01/11 06:16:10;;;;;;;30.23;25.35;;;0.80;99.90;;;;;;4936018;29;20047;-87
2022/01/11 06:18:45;;;;;;;37.65;27.58;;;0.80;99.90;;;;;;4929226;29;20047;-85
2022/01/11 06:21:20;;;;;;;29.58;24.55;;;0.80;99.90;;;;;;4954864;28;20047;-84
2022/01/11 06:23:47;;;;;;;26.90;23.35;;;0.80;99.90;;;;;;4938651;29;20055;-85
2022/01/11 06:26:15;;;;;;;34.03;23.83;;;0.80;99.90;;;;;;4939668;29;20074;-84
2022/01/11 06:28:42;;;;;;;33.95;24.27;;;0.80;99.90;;;;;;4942478;29;20047;-82
2022/01/11 06:31:09;;;;;;;47.40;40.15;;;0.80;99.90;;;;;;4907699;29;20505;-84
2022/01/11 06:33:37;;;;;;;38.22;28.25;;;0.80;99.90;;;;;;4911848;29;20040;-85
2022/01/11 06:36:09;;;;;;;29.40;25.50;;;0.80;99.90;;;;;;4931664;28;20055;-82
2022/01/11 06:38:41;;;;;;;30.52;24.60;;;0.80;99.90;;;;;;4976619;28;20035;-81
2022/01/11 06:41:09;;;;;;;28.55;25.20;;;0.80;99.90;;;;;;4987847;28;20043;-82
2022/01/11 06:43:38;;;;;;;29.48;25.42;;;0.80;99.90;;;;;;4977637;28;20046;-82
2022/01/11 06:46:05;;;;;;;40.58;27.17;;;0.80;99.90;;;;;;4981241;28;20034;-84
2022/01/11 06:48:33;;;;;;;31.90;25.88;;;0.80;99.90;;;;;;4960233;28;20061;-85
2022/01/11 06:51:00;;;;;;;27.92;24.23;;;0.80;99.90;;;;;;4979553;28;20374;-82
2022/01/11 06:53:34;;;;;;;29.00;25.45;;;0.90;99.90;;;;;;4963883;28;20054;-82
2022/01/11 06:56:01;;;;;;;31.83;25.35;;;0.90;99.90;;;;;;4962692;28;20158;-82
2022/01/11 06:58:27;;;;;;;31.63;27.17;;;0.90;99.90;;;;;;4978830;28;20047;-83
2022/01/11 07:00:55;;;;;;;28.65;25.08;;;0.90;99.90;;;;;;4977839;28;20135;-83
2022/01/11 07:03:21;;;;;;;27.67;22.98;;;0.90;99.90;;;;;;4982150;28;20037;-83
2022/01/11 07:06:13;;;;;;;29.23;24.33;;;1.00;99.90;;;;;;4997696;28;20062;-82
2022/01/11 07:08:39;;;;;;;32.10;26.15;;;1.00;99.90;;;;;;4983525;28;20364;-84
2022/01/11 07:11:06;;;;;;;30.02;23.92;;;1.00;99.90;;;;;;5000420;28;20041;-83
2022/01/11 07:13:33;;;;;;;30.05;23.88;;;1.00;99.90;;;;;;4966222;28;20041;-86
2022/01/11 07:16:03;;;;;;;36.72;24.23;;;1.00;99.90;;;;;;4999607;28;20214;-86
2022/01/11 07:18:30;;;;;;;29.17;24.55;;;1.00;99.90;;;;;;4998893;28;20076;-83
2022/01/11 07:20:59;;;;;;;33.55;25.55;;;1.00;99.90;;;;;;4986117;28;20117;-83
2022/01/11 07:23:28;;;;;;;26.33;23.10;;;1.00;99.90;;;;;;5001089;28;20068;-83
2022/01/11 07:25:54;;;;;;;33.33;23.63;;;1.00;99.90;;;;;;5011206;28;20064;-81
2022/01/11 07:28:23;;;;;;;35.10;24.25;;;1.00;99.90;;;;;;5015303;28;20049;-83
2022/01/11 07:30:54;;;;;;;31.23;22.67;;;1.00;99.90;;;;;;4998399;28;20038;-80
2022/01/11 07:33:22;;;;;;;34.45;23.63;;;1.10;99.90;;;;;;4999459;28;20062;-81
2022/01/11 07:35:51;;;;;;;34.08;23.30;;;1.10;99.90;;;;;;4992992;28;20054;-82
2022/01/11 07:38:17;;;;;;;34.30;25.77;;;1.10;99.90;;;;;;4993915;28;20046;-81
2022/01/11 07:40:44;;;;;;;30.48;26.77;;;1.10;99.90;;;;;;4992787;28;20403;-83
2022/01/11 07:43:30;;;;;;;37.97;24.77;;;1.10;99.90;;;;;;5003782;28;20038;-83
2022/01/11 07:46:00;;;;;;;32.08;24.58;;;1.20;99.90;;;;;;5013260;28;20186;-91
2022/01/11 07:48:34;;;;;;;27.17;24.35;;;1.20;99.90;;;;;;5013746;28;20053;-82
2022/01/11 07:51:05;;;;;;;34.22;24.30;;;1.30;99.90;;;;;;4997657;28;20395;-82
2022/01/11 07:53:34;;;;;;;35.17;25.58;;;1.20;99.90;;;;;;5012956;28;20476;-81
2022/01/11 07:56:06;;;;;;;27.95;24.95;;;1.20;99.90;;;;;;4995229;28;20058;-81
2022/01/11 07:58:33;;;;;;;31.17;23.75;;;1.30;99.90;;;;;;4993083;28;20046;-82
2022/01/11 08:00:59;;;;;;;27.20;24.25;;;1.20;99.90;;;;;;4993024;28;20022;-82
2022/01/11 08:03:32;;;;;;;29.70;24.30;;;1.30;99.90;;;;;;4978039;28;20047;-82
2022/01/11 08:06:07;;;;;;;32.53;23.08;;;1.30;99.90;;;;;;4992160;28;20061;-82
2022/01/11 08:08:34;;;;;;;28.80;23.98;;;1.40;99.90;;;;;;4992869;28;20042;-83
2022/01/11 08:11:02;;;;;;;30.70;23.63;;;1.40;99.90;;;;;;4993808;28;20038;-82
2022/01/11 08:13:33;;;;;;;28.88;25.80;;;1.40;99.90;;;;;;4993443;28;20046;-82
2022/01/11 08:16:00;;;;;;;27.67;24.17;;;1.50;99.90;;;;;;4976240;28;20069;-82
2022/01/11 08:18:27;;;;;;;30.38;23.20;;;1.50;99.90;;;;;;4994866;28;20030;-82
2022/01/11 08:20:54;;;;;;;27.63;22.92;;;1.50;99.90;;;;;;4994192;28;20042;-81
2022/01/11 08:23:20;;;;;;;28.20;20.92;;;1.50;99.90;;;;;;4993064;28;20046;-81
2022/01/11 08:25:47;;;;;;;25.50;21.95;;;1.50;99.90;;;;;;4992540;28;20042;-82
2022/01/11 08:28:13;;;;;;;33.72;22.20;;;1.50;99.90;;;;;;4994657;28;20038;-82
2022/01/11 08:30:44;;;;;;;33.55;21.83;;;1.60;99.90;;;;;;4977621;28;20495;-85
2022/01/11 08:33:14;;;;;;;28.75;23.25;;;1.60;99.90;;;;;;4993181;28;20038;-82
2022/01/11 08:35:42;;;;;;;28.88;22.27;;;1.60;99.90;;;;;;4992700;28;20053;-84
2022/01/11 08:38:11;;;;;;;31.85;21.17;;;1.70;99.90;;;;;;4977177;28;20045;-80
2022/01/11 08:40:37;;;;;;;22.35;20.08;;;1.70;99.90;;;;;;4992970;28;20042;-81
2022/01/11 08:43:07;;;;;;;25.98;20.05;;;1.70;99.90;;;;;;4992875;28;20396;-81
2022/01/11 08:45:37;;;;;;;23.20;20.50;;;1.80;99.90;;;;;;4977386;28;20046;-82
2022/01/11 08:48:07;;;;;;;23.02;20.65;;;1.80;99.90;;;;;;4993148;28;20049;-82
2022/01/11 08:50:39;;;;;;;22.17;19.85;;;1.80;99.90;;;;;;4978012;28;20045;-81
2022/01/11 08:53:06;;;;;;;30.95;20.83;;;1.90;99.90;;;;;;4992762;28;20042;-81
2022/01/11 08:55:34;;;;;;;23.08;20.58;;;1.90;99.90;;;;;;4993178;28;20038;-81
2022/01/11 08:58:02;;;;;;;22.67;20.40;;;2.00;99.90;;;;;;5011400;28;20488;-81
2022/01/11 09:00:28;;;;;;;25.63;20.02;;;2.10;99.90;;;;;;5013054;28;20392;-81
2022/01/11 09:03:02;;;;;;;25.83;19.85;;;2.20;99.90;;;;;;5012863;28;20046;-81
2022/01/11 09:05:34;;;;;;;32.42;18.85;;;2.20;99.90;;;;;;5012169;28;20049;-81
2022/01/11 09:08:04;;;;;;;20.55;18.52;;;2.20;99.90;;;;;;5011541;28;20045;-81
2022/01/11 09:10:31;;;;;;;23.30;18.23;;;2.30;99.90;;;;;;5012640;28;20474;-81
2022/01/11 09:12:58;;;;;;;25.33;17.30;;;2.30;99.90;;;;;;5011939;28;20046;-81
2022/01/11 09:15:25;;;;;;;20.77;17.40;;;2.30;99.90;;;;;;5011759;28;20038;-81
2022/01/11 09:17:52;;;;;;;19.42;17.52;;;2.40;99.90;;;;;;5011740;28;20054;-81
2022/01/11 09:20:18;;;;;;;19.13;17.10;;;2.40;99.90;;;;;;5013726;28;20049;-81
2022/01/11 09:22:47;;;;;;;21.58;17.95;;;2.50;99.90;;;;;;5024921;28;20032;-90
2022/01/11 09:25:15;;;;;;;21.20;18.67;;;2.40;99.90;;;;;;5033610;28;20046;-80
2022/01/11 09:27:52;;;;;;;19.42;17.38;;;2.40;99.90;;;;;;5004418;28;20050;-82
2022/01/11 09:30:20;;;;;;;22.10;18.80;;;2.40;99.90;;;;;;4992269;28;20038;-81
2022/01/11 09:32:50;;;;;;;21.10;18.88;;;2.40;99.90;;;;;;4991597;28;20042;-83
2022/01/11 09:35:17;;;;;;;23.55;18.15;;;2.50;99.90;;;;;;4991665;28;20468;-81
2022/01/11 09:37:49;;;;;;;21.27;19.17;;;2.50;99.90;;;;;;4991585;28;20081;-86
2022/01/11 09:40:17;;;;;;;25.48;19.42;;;2.60;99.90;;;;;;4991111;28;20046;-81
2022/01/11 09:42:46;;;;;;;24.25;18.42;;;2.60;99.90;;;;;;4991234;28;20404;-85
2022/01/11 09:45:13;;;;;;;22.63;18.95;;;2.70;99.90;;;;;;4991545;28;20054;-81
2022/01/11 09:47:44;;;;;;;20.40;18.30;;;2.70;99.90;;;;;;4976530;28;20053;-81
2022/01/11 09:50:15;;;;;;;20.52;18.40;;;2.80;99.90;;;;;;4991813;28;20046;-81
2022/01/11 09:52:47;;;;;;;21.05;19.17;;;2.80;99.90;;;;;;4991590;28;20046;-85
2022/01/11 09:55:17;;;;;;;25.60;17.55;;;2.80;99.90;;;;;;4991847;28;20039;-82
2022/01/11 09:57:45;;;;;;;21.95;19.17;;;2.90;99.90;;;;;;4992238;28;20053;-82
2022/01/11 10:00:32;;;;;;;20.98;19.08;;;2.90;99.90;;;;;;4973260;28;20042;-82
2022/01/11 10:03:14;;;;;;;;;;;2.90;99.90;;;;;;4992349;28;20057;-82
2022/01/11 10:05:52;;;;;;;21.17;19.02;;;2.90;99.90;;;;;;4992378;28;19914;-82
2022/01/11 10:08:27;;;;;;;30.48;20.00;;;3.00;99.90;;;;;;4991913;28;20471;-81
2022/01/11 10:10:57;;;;;;;23.30;20.13;;;3.10;99.90;;;;;;4993190;28;20047;-82
2022/01/11 10:13:39;;;;;;;26.38;20.48;;;3.20;99.90;;;;;;4976011;28;20046;-81
2022/01/11 10:16:24;;;;;;;19.73;17.67;;;3.20;99.90;;;;;;4991606;28;20053;-81
2022/01/11 10:18:55;;;;;;;22.55;19.35;;;3.20;99.90;;;;;;4982106;28;20050;-81
2022/01/11 10:21:40;;;;;;;19.35;17.27;;;3.20;99.90;;;;;;4992449;28;20061;-81
2022/01/11 10:24:35;;;;;;;25.80;18.98;;;3.30;99.90;;;;;;4991339;28;20042;-82
2022/01/11 10:27:17;;;;;;;20.95;18.33;;;3.30;99.90;;;;;;5007299;28;20583;-82
2022/01/11 10:29:53;;;;;;;19.80;17.95;;;3.40;99.90;;;;;;4975574;28;20058;-81
2022/01/11 10:32:30;;;;;;;20.13;18.10;;;3.40;99.90;;;;;;4991618;28;20050;-81
2022/01/11 10:35:03;;;;;;;20.00;17.75;;;3.40;99.90;;;;;;4991126;28;20480;-82
2022/01/11 10:37:52;;;;;;;21.95;16.65;;;3.50;99.90;;;;;;5007847;28;20055;-82
2022/01/11 10:40:21;;;;;;;22.75;18.42;;;3.50;99.90;;;;;;4993405;28;20057;-81
2022/01/11 10:42:54;;;;;;;22.17;19.90;;;3.60;99.90;;;;;;4999434;28;20050;-88
2022/01/11 10:45:26;;;;;;;21.02;18.75;;;3.70;99.90;;;;;;5001344;28;20038;-81
2022/01/11 10:48:00;;;;;;;20.92;16.85;;;3.80;99.90;;;;;;4998503;28;20053;-81
2022/01/11 10:50:29;;;;;;;29.00;17.95;;;3.80;99.90;;;;;;5014528;28;20053;-81
2022/01/11 10:53:03;;;;;;;18.30;16.17;;;3.80;99.90;;;;;;4997894;28;20033;-82
2022/01/11 10:55:34;;;;;;;24.15;16.52;;;3.80;99.90;;;;;;5014622;28;20044;-83
2022/01/11 10:58:04;;;;;;;21.17;15.40;;;3.90;99.90;;;;;;5014029;28;20050;-81
2022/01/11 11:00:43;;;;;;;18.92;14.82;;;3.90;99.90;;;;;;5014673;28;20041;-81
2022/01/11 11:03:27;;;;;;;17.00;14.52;;;3.90;99.90;;;;;;5015031;28;20041;-81
2022/01/11 11:06:07;;;;;;;;;;;4.00;99.90;;;;;;5000403;28;20510;-82
2022/01/11 11:08:38;;;;;;;20.92;16.73;;;4.00;99.90;;;;;;5017100;28;19916;-81
2022/01/11 11:11:18;;;;;;;17.17;15.38;;;4.00;99.90;;;;;;5020601;28;20034;-81
2022/01/11 11:13:51;;;;;;;17.63;15.20;;;4.00;99.90;;;;;;5017000;28;20042;-82
2022/01/11 11:16:21;;;;;;;18.63;14.98;;;4.00;99.90;;;;;;4998441;28;20042;-81
2022/01/11 11:18:56;;;;;;;22.38;15.48;;;4.00;99.90;;;;;;5014987;28;20510;-82
2022/01/11 11:21:32;;;;;;;17.73;15.55;;;4.00;99.90;;;;;;5014700;28;20042;-82
2022/01/11 11:24:01;;;;;;;23.80;15.73;;;4.00;99.90;;;;;;5015606;28;20426;-82
2022/01/11 11:26:32;;;;;;;22.65;15.90;;;4.00;99.90;;;;;;5015050;28;20057;-81
2022/01/11 11:28:58;;;;;;;;;;;3.90;99.90;;;;;;5015412;28;20031;-82
2022/01/11 11:31:25;;;;;;;22.33;15.48;;;4.00;99.90;;;;;;5014833;28;19910;-81
2022/01/11 11:33:52;;;;;;;16.20;14.23;;;4.00;99.90;;;;;;5014980;28;20049;-87
2022/01/11 11:36:19;;;;;;;17.92;16.13;;;4.10;99.90;;;;;;5012565;28;20045;-82
2022/01/11 11:39:11;;;;;;;14.55;12.80;;;4.20;99.90;;;;;;5006839;28;20455;-82
2022/01/11 11:41:41;;;;;;;16.13;13.80;;;4.20;99.90;;;;;;4995713;28;20038;-81
2022/01/11 11:44:16;;;;;;;14.93;13.38;;;4.20;99.90;;;;;;4993633;28;20491;-82
2022/01/11 11:46:49;;;;;;;17.45;13.52;;;4.30;99.90;;;;;;4994016;28;20484;-81
2022/01/11 11:49:17;;;;;;;17.02;14.45;;;4.50;99.90;;;;;;4992982;28;20404;-82
2022/01/11 11:51:44;;;;;;;25.30;15.30;;;4.50;99.90;;;;;;4993877;28;20412;-82
2022/01/11 11:54:13;;;;;;;23.58;14.10;;;4.50;99.90;;;;;;4990852;28;20042;-82
2022/01/11 11:56:44;;;;;;;17.75;14.57;;;4.50;99.90;;;;;;5003449;28;20030;-86
2022/01/11 11:59:11;;;;;;;15.05;13.65;;;4.50;99.90;;;;;;4997445;28;20034;-86
2022/01/11 12:01:45;;;;;;;14.13;12.70;;;4.50;99.90;;;;;;4996928;28;20025;-82
2022/01/11 12:04:25;;;;;;;18.00;13.63;;;4.50;99.90;;;;;;5013403;28;20038;-82
2022/01/11 12:06:52;;;;;;;16.88;13.85;;;4.50;99.90;;;;;;5013810;28;20037;-86
2022/01/11 12:09:20;;;;;;;19.90;12.63;;;4.60;99.90;;;;;;5013242;28;20034;-82
2022/01/11 12:11:51;;;;;;;21.33;14.85;;;4.70;99.90;;;;;;5012192;28;20042;-82
2022/01/11 12:14:36;;;;;;;19.35;14.25;;;4.70;99.90;;;;;;5012088;28;20030;-82
2022/01/11 12:17:12;;;;;;;19.52;12.75;;;4.80;99.90;;;;;;5012796;28;20049;-82
2022/01/11 12:19:53;;;;;;;14.68;12.52;;;4.90;99.90;;;;;;5012395;28;20030;-81
2022/01/11 12:22:31;;;;;;;14.35;12.38;;;5.00;99.90;;;;;;5011914;28;20042;-82
2022/01/11 12:25:02;;;;;;;11.70;10.25;;;5.10;99.90;;;;;;5013030;28;20050;-82
2022/01/11 12:27:29;;;;;;;;;;;5.10;99.90;;;;;;5014224;28;20045;-82
2022/01/11 12:30:06;;;;;;;13.82;10.70;;;5.20;99.90;;;;;;5013351;28;19909;-87
2022/01/11 12:32:38;;;;;;;18.58;12.63;;;5.30;99.90;;;;;;4999647;28;20034;-81
2022/01/11 12:35:21;;;;;;;12.95;11.65;;;5.30;99.90;;;;;;4992385;28;20057;-82
2022/01/11 12:37:47;;;;;;;13.35;11.95;;;5.30;99.90;;;;;;4992595;28;20054;-80
2022/01/11 12:40:31;;;;;;;13.90;11.63;;;5.40;99.90;;;;;;4993716;28;20034;-81
2022/01/11 12:43:20;;;;;;;13.93;12.45;;;5.40;99.90;;;;;;4994136;28;20034;-81
2022/01/11 12:46:04;;;;;;;23.02;12.77;;;5.50;99.90;;;;;;4993119;28;20038;-80
2022/01/11 12:48:57;;;;;;;18.67;11.50;;;5.60;99.90;;;;;;4993320;28;20046;-80
2022/01/11 12:51:23;;;;;;;13.80;11.27;;;5.50;99.90;;;;;;4993955;28;20383;-80
2022/01/11 12:54:17;;;;;;;16.48;12.18;;;5.50;99.90;;;;;;4992450;28;20053;-80
2022/01/11 12:56:46;;;;;;;11.32;10.15;;;5.40;99.90;;;;;;4983929;28;20073;-80
2022/01/11 12:59:13;;;;;;;13.40;11.70;;;5.50;99.90;;;;;;4992230;28;20041;-80
2022/01/11 13:01:39;;;;;;;12.65;11.43;;;5.50;99.90;;;;;;4993891;28;20041;-80